sensor_id;sensor_type;location;lat;lon;timestamp;pressure;altitude;pressure_sealevel;temperature;humidity
51781;BME280;37844;57.126;24.288;2023-03-23T00:00:03;100294.72;;;8.24;100.00
51781;BME280;37844;57.126;24.288;2023-03-23T00:02:49;100289.72;;;8.35;100.00
51781;BME280;37844;57.126;24.288;2023-03-23T00:05:33;100300.81;;;8.32;100.00
51781;BME280;37844;57.126;24.288;2023-03-23T00:08:17;100296.63;;;8.36;100.00
51781;BME280;37844;57.126;24.288;2023-03-23T00:11:01;100292.31;;;8.35;100.00
51781;BME280;37844;57.126;24.288;2023-03-23T00:13:46;100276.94;;;8.36;100.00
51781;BME280;37844;57.126;24.288;2023-03-23T00:16:31;100275.25;;;8.38;100.00
51781;BME280;37844;57.126;24.288;2023-03-23T00:19:16;100274.25;;;8.30;100.00
51781;BME280;37844;57.126;24.288;2023-03-23T00:22:02;100266.53;;;8.27;100.00
51781;BME280;37844;57.126;24.288;2023-03-23T00:24:47;100259.72;;;8.29;100.00
51781;BME280;37844;57.126;24.288;2023-03-23T00:27:31;100274.38;;;8.36;100.00
51781;BME280;37844;57.126;24.288;2023-03-23T00:30:16;100257.25;;;8.35;100.00
51781;BME280;37844;57.126;24.288;2023-03-23T00:33:01;100247.72;;;8.29;100.00
51781;BME280;37844;57.126;24.288;2023-03-23T00:35:45;100263.16;;;8.33;100.00
51781;BME280;37844;57.126;24.288;2023-03-23T00:38:29;100264.94;;;8.35;100.00
51781;BME280;37844;57.126;24.288;2023-03-23T00:41:13;100256.47;;;8.41;100.00
51781;BME280;37844;57.126;24.288;2023-03-23T00:43:58;100261.63;;;8.41;100.00
51781;BME280;37844;57.126;24.288;2023-03-23T00:46:46;100254.69;;;8.38;100.00
51781;BME280;37844;57.126;24.288;2023-03-23T00:49:32;100255.53;;;8.36;100.00
51781;BME280;37844;57.126;24.288;2023-03-23T00:52:18;100254.66;;;8.37;100.00
51781;BME280;37844;57.126;24.288;2023-03-23T00:55:02;100250.38;;;8.36;100.00
51781;BME280;37844;57.126;24.288;2023-03-23T00:57:46;100262.38;;;8.35;100.00
51781;BME280;37844;57.126;24.288;2023-03-23T01:00:31;100246.94;;;8.34;100.00
51781;BME280;37844;57.126;24.288;2023-03-23T01:03:15;100247.00;;;8.38;100.00
51781;BME280;37844;57.126;24.288;2023-03-23T01:06:09;100242.72;;;8.39;100.00
51781;BME280;37844;57.126;24.288;2023-03-23T01:08:56;100234.25;;;8.44;100.00
51781;BME280;37844;57.126;24.288;2023-03-23T01:11:41;100236.88;;;8.47;100.00
51781;BME280;37844;57.126;24.288;2023-03-23T01:14:26;100229.13;;;8.44;100.00
51781;BME280;37844;57.126;24.288;2023-03-23T01:17:10;100222.34;;;8.48;100.00
51781;BME280;37844;57.126;24.288;2023-03-23T01:19:53;100230.06;;;8.49;100.00
51781;BME280;37844;57.126;24.288;2023-03-23T01:22:38;100220.63;;;8.48;100.00
51781;BME280;37844;57.126;24.288;2023-03-23T01:25:23;100216.28;;;8.43;100.00
51781;BME280;37844;57.126;24.288;2023-03-23T01:28:07;100215.44;;;8.45;100.00
51781;BME280;37844;57.126;24.288;2023-03-23T01:30:51;100213.75;;;8.46;100.00
51781;BME280;37844;57.126;24.288;2023-03-23T01:33:35;100214.66;;;8.51;100.00
51781;BME280;37844;57.126;24.288;2023-03-23T01:36:20;100219.75;;;8.48;100.00
51781;BME280;37844;57.126;24.288;2023-03-23T01:39:04;100212.03;;;8.45;100.00
51781;BME280;37844;57.126;24.288;2023-03-23T01:41:49;100204.31;;;8.45;100.00
51781;BME280;37844;57.126;24.288;2023-03-23T01:47:17;100195.91;;;8.58;100.00
51781;BME280;37844;57.126;24.288;2023-03-23T01:50:07;100188.13;;;8.51;100.00
51781;BME280;37844;57.126;24.288;2023-03-23T01:52:52;100188.97;;;8.51;100.00
51781;BME280;37844;57.126;24.288;2023-03-23T01:55:37;100195.81;;;8.51;100.00
51781;BME280;37844;57.126;24.288;2023-03-23T01:58:27;100197.59;;;8.55;100.00
51781;BME280;37844;57.126;24.288;2023-03-23T02:01:14;100180.44;;;8.54;100.00
51781;BME280;37844;57.126;24.288;2023-03-23T02:03:59;100190.66;;;8.49;100.00
51781;BME280;37844;57.126;24.288;2023-03-23T02:06:43;100181.28;;;8.54;100.00
51781;BME280;37844;57.126;24.288;2023-03-23T02:09:27;100187.34;;;8.58;100.00
51781;BME280;37844;57.126;24.288;2023-03-23T02:12:12;100183.91;;;8.59;100.00
51781;BME280;37844;57.126;24.288;2023-03-23T02:14:56;100186.47;;;8.56;100.00
51781;BME280;37844;57.126;24.288;2023-03-23T02:17:50;100182.19;;;8.56;100.00
51781;BME280;37844;57.126;24.288;2023-03-23T02:35:28;100172.03;;;8.64;100.00
51781;BME280;37844;57.126;24.288;2023-03-23T02:38:15;100171.13;;;8.62;100.00
51781;BME280;37844;57.126;24.288;2023-03-23T02:41:01;100163.44;;;8.62;100.00
51781;BME280;37844;57.126;24.288;2023-03-23T02:43:46;100160.00;;;8.63;100.00
51781;BME280;37844;57.126;24.288;2023-03-23T02:46:30;100151.47;;;8.65;100.00
51781;BME280;37844;57.126;24.288;2023-03-23T02:49:15;100164.34;;;8.70;100.00
51781;BME280;37844;57.126;24.288;2023-03-23T02:51:59;100162.59;;;8.66;100.00
51781;BME280;37844;57.126;24.288;2023-03-23T02:54:46;100153.19;;;8.65;100.00
51781;BME280;37844;57.126;24.288;2023-03-23T02:57:31;100160.84;;;8.63;100.00
51781;BME280;37844;57.126;24.288;2023-03-23T03:00:16;100154.88;;;8.66;100.00
51781;BME280;37844;57.126;24.288;2023-03-23T03:03:00;100160.03;;;8.66;100.00
51781;BME280;37844;57.126;24.288;2023-03-23T03:08:48;100150.56;;;8.63;100.00
51781;BME280;37844;57.126;24.288;2023-03-23T03:11:35;100162.56;;;8.61;100.00
51781;BME280;37844;57.126;24.288;2023-03-23T03:14:22;100157.44;;;8.63;100.00
51781;BME280;37844;57.126;24.288;2023-03-23T03:17:29;100166.03;;;8.68;100.00
51781;BME280;37844;57.126;24.288;2023-03-23T03:20:12;100161.81;;;8.72;100.00
51781;BME280;37844;57.126;24.288;2023-03-23T03:22:58;100166.97;;;8.72;100.00
51781;BME280;37844;57.126;24.288;2023-03-23T03:25:43;100161.88;;;8.76;100.00
51781;BME280;37844;57.126;24.288;2023-03-23T03:28:31;100150.81;;;8.83;100.00
51781;BME280;37844;57.126;24.288;2023-03-23T03:31:20;100158.47;;;8.80;100.00
51781;BME280;37844;57.126;24.288;2023-03-23T03:34:05;100155.91;;;8.82;100.00
51781;BME280;37844;57.126;24.288;2023-03-23T03:36:50;100150.81;;;8.83;100.00
51781;BME280;37844;57.126;24.288;2023-03-23T03:39:36;100148.22;;;8.82;100.00
51781;BME280;37844;57.126;24.288;2023-03-23T03:42:20;100159.34;;;8.82;100.00
51781;BME280;37844;57.126;24.288;2023-03-23T03:45:04;100155.09;;;8.84;100.00
51781;BME280;37844;57.126;24.288;2023-03-23T03:47:49;100145.78;;;8.93;100.00
51781;BME280;37844;57.126;24.288;2023-03-23T03:50:33;100137.16;;;8.92;100.00
51781;BME280;37844;57.126;24.288;2023-03-23T03:53:17;100133.78;;;8.95;100.00
51781;BME280;37844;57.126;24.288;2023-03-23T03:56:01;100078.69;;;8.68;100.00
51781;BME280;37844;57.126;24.288;2023-03-23T03:58:45;100123.47;;;8.90;100.00
51781;BME280;37844;57.126;24.288;2023-03-23T04:01:32;100113.19;;;8.91;100.00
51781;BME280;37844;57.126;24.288;2023-03-23T04:04:15;100118.34;;;8.93;100.00
51781;BME280;37844;57.126;24.288;2023-03-23T04:07:00;100122.66;;;8.96;100.00
51781;BME280;37844;57.126;24.288;2023-03-23T04:09:45;100128.69;;;9.01;100.00
51781;BME280;37844;57.126;24.288;2023-03-23T04:12:31;100126.97;;;9.01;100.00
51781;BME280;37844;57.126;24.288;2023-03-23T04:15:15;100126.16;;;9.04;100.00
51781;BME280;37844;57.126;24.288;2023-03-23T04:17:59;100140.75;;;9.08;100.00
51781;BME280;37844;57.126;24.288;2023-03-23T04:20:43;100141.63;;;9.10;100.00
51781;BME280;37844;57.126;24.288;2023-03-23T04:23:29;100133.94;;;9.13;100.00
51781;BME280;37844;57.126;24.288;2023-03-23T04:26:15;100133.13;;;9.17;100.00
51781;BME280;37844;57.126;24.288;2023-03-23T04:28:59;100116.84;;;9.17;100.00
51781;BME280;37844;57.126;24.288;2023-03-23T04:31:43;100129.75;;;9.21;100.00
51781;BME280;37844;57.126;24.288;2023-03-23T04:34:28;100128.06;;;9.23;100.00
51781;BME280;37844;57.126;24.288;2023-03-23T04:37:16;100139.19;;;9.21;100.00
51781;BME280;37844;57.126;24.288;2023-03-23T04:40:00;100133.16;;;9.22;100.00
51781;BME280;37844;57.126;24.288;2023-03-23T04:42:45;100132.28;;;9.20;100.00
51781;BME280;37844;57.126;24.288;2023-03-23T04:45:29;100129.72;;;9.20;100.00
51781;BME280;37844;57.126;24.288;2023-03-23T04:48:13;100124.66;;;9.26;100.00
51781;BME280;37844;57.126;24.288;2023-03-23T04:50:57;100130.63;;;9.26;100.00
51781;BME280;37844;57.126;24.288;2023-03-23T04:53:44;100115.22;;;9.29;100.00
51781;BME280;37844;57.126;24.288;2023-03-23T04:56:28;100116.13;;;9.33;100.00
51781;BME280;37844;57.126;24.288;2023-03-23T04:59:12;100113.59;;;9.39;100.00
51781;BME280;37844;57.126;24.288;2023-03-23T05:01:56;100111.00;;;9.39;100.00
51781;BME280;37844;57.126;24.288;2023-03-23T05:04:40;100112.72;;;9.39;100.00
51781;BME280;37844;57.126;24.288;2023-03-23T05:07:24;100115.34;;;9.43;100.00
51781;BME280;37844;57.126;24.288;2023-03-23T05:10:09;100120.50;;;9.45;100.00
51781;BME280;37844;57.126;24.288;2023-03-23T05:12:54;100119.63;;;9.44;100.00
51781;BME280;37844;57.126;24.288;2023-03-23T05:15:38;100126.53;;;9.47;100.00
51781;BME280;37844;57.126;24.288;2023-03-23T05:18:22;100122.22;;;9.47;100.00
51781;BME280;37844;57.126;24.288;2023-03-23T05:21:06;100127.41;;;9.52;100.00
51781;BME280;37844;57.126;24.288;2023-03-23T05:23:50;100123.13;;;9.52;100.00
51781;BME280;37844;57.126;24.288;2023-03-23T05:26:38;100110.22;;;9.48;100.00
51781;BME280;37844;57.126;24.288;2023-03-23T05:29:22;100121.38;;;9.51;100.00
51781;BME280;37844;57.126;24.288;2023-03-23T05:32:07;100102.56;;;9.57;100.00
51781;BME280;37844;57.126;24.288;2023-03-23T05:34:51;100109.44;;;9.60;100.00
51781;BME280;37844;57.126;24.288;2023-03-23T05:37:35;100110.28;;;9.57;100.00
51781;BME280;37844;57.126;24.288;2023-03-23T05:40:20;100102.59;;;9.62;100.00
51781;BME280;37844;57.126;24.288;2023-03-23T05:43:04;100106.06;;;9.64;100.00
51781;BME280;37844;57.126;24.288;2023-03-23T05:45:49;100101.78;;;9.66;100.00
51781;BME280;37844;57.126;24.288;2023-03-23T05:48:33;100104.34;;;9.67;100.00
51781;BME280;37844;57.126;24.288;2023-03-23T05:51:17;100106.09;;;9.71;100.00
51781;BME280;37844;57.126;24.288;2023-03-23T05:54:02;100113.84;;;9.79;100.00
51781;BME280;37844;57.126;24.288;2023-03-23T05:56:54;100107.84;;;9.79;100.00
51781;BME280;37844;57.126;24.288;2023-03-23T05:59:37;100107.00;;;9.78;100.00
51781;BME280;37844;57.126;24.288;2023-03-23T06:02:21;100102.72;;;9.82;100.00
51781;BME280;37844;57.126;24.288;2023-03-23T06:05:07;100101.88;;;9.84;100.00
51781;BME280;37844;57.126;24.288;2023-03-23T06:07:51;100100.19;;;9.85;100.00
51781;BME280;37844;57.126;24.288;2023-03-23T06:10:35;100111.28;;;9.82;100.00
51781;BME280;37844;57.126;24.288;2023-03-23T06:13:20;100108.72;;;9.81;100.00
51781;BME280;37844;57.126;24.288;2023-03-23T06:16:04;100113.03;;;9.83;100.00
51781;BME280;37844;57.126;24.288;2023-03-23T06:18:48;100106.16;;;9.84;100.00
51781;BME280;37844;57.126;24.288;2023-03-23T06:21:33;100123.34;;;9.88;100.00
51781;BME280;37844;57.126;24.288;2023-03-23T06:24:18;100112.16;;;9.84;100.00
51781;BME280;37844;57.126;24.288;2023-03-23T06:27:02;100121.63;;;9.88;100.00
51781;BME280;37844;57.126;24.288;2023-03-23T06:29:46;100111.28;;;9.82;100.00
51781;BME280;37844;57.126;24.288;2023-03-23T06:32:30;100121.66;;;9.90;100.00
51781;BME280;37844;57.126;24.288;2023-03-23T06:35:15;100126.84;;;9.97;100.00
51781;BME280;37844;57.126;24.288;2023-03-23T06:37:59;100110.53;;;9.98;100.00
51781;BME280;37844;57.126;24.288;2023-03-23T06:40:44;100122.56;;;10.00;100.00
51781;BME280;37844;57.126;24.288;2023-03-23T06:43:30;100134.59;;;9.99;100.00
51781;BME280;37844;57.126;24.288;2023-03-23T06:46:14;100128.59;;;10.06;100.00
51781;BME280;37844;57.126;24.288;2023-03-23T06:48:58;100120.84;;;10.03;100.00
51781;BME280;37844;57.126;24.288;2023-03-23T06:51:43;100125.97;;;9.97;100.00
51781;BME280;37844;57.126;24.288;2023-03-23T06:54:27;100122.56;;;10.01;100.00
51781;BME280;37844;57.126;24.288;2023-03-23T06:57:11;100117.41;;;10.03;100.00
51781;BME280;37844;57.126;24.288;2023-03-23T06:59:55;100120.00;;;10.06;100.00
51781;BME280;37844;57.126;24.288;2023-03-23T07:02:39;100124.34;;;10.11;100.00
51781;BME280;37844;57.126;24.288;2023-03-23T07:05:24;100125.19;;;10.10;100.00
51781;BME280;37844;57.126;24.288;2023-03-23T07:08:09;100130.34;;;10.15;100.00
51781;BME280;37844;57.126;24.288;2023-03-23T07:10:53;100133.78;;;10.15;100.00
51781;BME280;37844;57.126;24.288;2023-03-23T07:13:37;100126.97;;;10.24;100.00
51781;BME280;37844;57.126;24.288;2023-03-23T07:16:21;100129.56;;;10.25;100.00
51781;BME280;37844;57.126;24.288;2023-03-23T07:19:05;100133.88;;;10.29;100.00
51781;BME280;37844;57.126;24.288;2023-03-23T07:21:49;100135.59;;;10.29;100.00
51781;BME280;37844;57.126;24.288;2023-03-23T07:24:33;100141.59;;;10.29;100.00
51781;BME280;37844;57.126;24.288;2023-03-23T07:27:18;100144.16;;;10.28;100.00
51781;BME280;37844;57.126;24.288;2023-03-23T07:30:03;100141.66;;;10.35;100.00
51781;BME280;37844;57.126;24.288;2023-03-23T07:32:47;100149.38;;;10.35;100.00
51781;BME280;37844;57.126;24.288;2023-03-23T07:35:31;100152.81;;;10.40;100.00
51781;BME280;37844;57.126;24.288;2023-03-23T07:38:15;100155.41;;;10.42;100.00
51781;BME280;37844;57.126;24.288;2023-03-23T07:40:59;100155.41;;;10.42;100.00
51781;BME280;37844;57.126;24.288;2023-03-23T07:43:43;100148.53;;;10.41;100.00
51781;BME280;37844;57.126;24.288;2023-03-23T07:46:27;100146.81;;;10.42;100.00
51781;BME280;37844;57.126;24.288;2023-03-23T07:49:11;100153.69;;;10.41;100.00
51781;BME280;37844;57.126;24.288;2023-03-23T07:51:55;100148.53;;;10.38;100.00
51781;BME280;37844;57.126;24.288;2023-03-23T07:54:39;100154.53;;;10.37;100.00
51781;BME280;37844;57.126;24.288;2023-03-23T07:57:24;100150.22;;;10.34;100.00
51781;BME280;37844;57.126;24.288;2023-03-23T08:00:08;100151.97;;;10.42;100.00
51781;BME280;37844;57.126;24.288;2023-03-23T08:03:06;100145.94;;;10.41;100.00
51781;BME280;37844;57.126;24.288;2023-03-23T08:05:51;100146.81;;;10.40;100.00
51781;BME280;37844;57.126;24.288;2023-03-23T08:08:35;100144.25;;;10.45;100.00
51781;BME280;37844;57.126;24.288;2023-03-23T08:11:19;100143.44;;;10.49;100.00
51781;BME280;37844;57.126;24.288;2023-03-23T08:14:04;100157.19;;;10.58;100.00
51781;BME280;37844;57.126;24.288;2023-03-23T08:16:49;100152.03;;;10.54;100.00
51781;BME280;37844;57.126;24.288;2023-03-23T08:19:33;100145.16;;;10.51;100.00
51781;BME280;37844;57.126;24.288;2023-03-23T08:22:20;100142.56;;;10.54;100.00
51781;BME280;37844;57.126;24.288;2023-03-23T08:25:05;100136.56;;;10.54;100.00
51781;BME280;37844;57.126;24.288;2023-03-23T08:27:50;100136.56;;;10.57;100.00
51781;BME280;37844;57.126;24.288;2023-03-23T08:30:33;100140.88;;;10.59;100.00
51781;BME280;37844;57.126;24.288;2023-03-23T08:33:18;100141.75;;;10.61;100.00
51781;BME280;37844;57.126;24.288;2023-03-23T08:36:02;100145.19;;;10.71;100.00
51781;BME280;37844;57.126;24.288;2023-03-23T08:38:46;100136.59;;;10.74;100.00
51781;BME280;37844;57.126;24.288;2023-03-23T08:41:30;100135.75;;;10.84;100.00
51781;BME280;37844;57.126;24.288;2023-03-23T08:44:14;100135.78;;;10.87;100.00
51781;BME280;37844;57.126;24.288;2023-03-23T08:46:58;100136.63;;;10.80;100.00
51781;BME280;37844;57.126;24.288;2023-03-23T08:49:42;100138.34;;;10.81;100.00
51781;BME280;37844;57.126;24.288;2023-03-23T08:52:26;100134.03;;;10.77;100.00
51781;BME280;37844;57.126;24.288;2023-03-23T08:55:17;100127.16;;;10.74;100.00
51781;BME280;37844;57.126;24.288;2023-03-23T08:58:01;100123.72;;;10.75;100.00
51781;BME280;37844;57.126;24.288;2023-03-23T09:00:47;100124.56;;;10.70;100.00
51781;BME280;37844;57.126;24.288;2023-03-23T09:03:31;100120.28;;;10.69;100.00
51781;BME280;37844;57.126;24.288;2023-03-23T09:06:15;100116.84;;;10.73;100.00
51781;BME280;37844;57.126;24.288;2023-03-23T09:08:59;100128.00;;;10.69;100.00
51781;BME280;37844;57.126;24.288;2023-03-23T09:11:44;100122.00;;;10.71;100.00
51781;BME280;37844;57.126;24.288;2023-03-23T09:14:28;100115.97;;;10.72;100.00
51781;BME280;37844;57.126;24.288;2023-03-23T09:17:12;100116.00;;;10.75;100.00
51781;BME280;37844;57.126;24.288;2023-03-23T09:19:56;100122.03;;;10.77;100.00
51781;BME280;37844;57.126;24.288;2023-03-23T09:22:41;100122.00;;;10.73;100.00
51781;BME280;37844;57.126;24.288;2023-03-23T09:25:26;100123.72;;;10.63;100.00
51781;BME280;37844;57.126;24.288;2023-03-23T09:28:10;100116.81;;;10.57;100.00
51781;BME280;37844;57.126;24.288;2023-03-23T09:30:55;100111.66;;;10.57;100.00
51781;BME280;37844;57.126;24.288;2023-03-23T09:33:41;100126.22;;;10.51;100.00
51781;BME280;37844;57.126;24.288;2023-03-23T09:36:25;100113.31;;;10.46;100.00
51781;BME280;37844;57.126;24.288;2023-03-23T09:39:09;100112.50;;;10.44;100.00
51781;BME280;37844;57.126;24.288;2023-03-23T09:45:02;100105.59;;;10.46;100.00
51781;BME280;37844;57.126;24.288;2023-03-23T09:50:42;100091.03;;;10.47;100.00
51781;BME280;37844;57.126;24.288;2023-03-23T09:53:29;100091.88;;;10.50;100.00
51781;BME280;37844;57.126;24.288;2023-03-23T09:56:18;100090.16;;;10.55;100.00
51781;BME280;37844;57.126;24.288;2023-03-23T10:01:55;100087.59;;;10.55;100.00
51781;BME280;37844;57.126;24.288;2023-03-23T10:04:45;100073.00;;;10.57;100.00
51781;BME280;37844;57.126;24.288;2023-03-23T10:07:30;100073.88;;;10.59;100.00
51781;BME280;37844;57.126;24.288;2023-03-23T10:10:14;100072.13;;;10.60;100.00
51781;BME280;37844;57.126;24.288;2023-03-23T10:13:03;100067.00;;;10.68;100.00
51781;BME280;37844;57.126;24.288;2023-03-23T10:15:48;100069.56;;;10.72;100.00
51781;BME280;37844;57.126;24.288;2023-03-23T10:21:29;100079.03;;;10.66;100.00
51781;BME280;37844;57.126;24.288;2023-03-23T10:24:16;100075.59;;;10.62;100.00
51781;BME280;37844;57.126;24.288;2023-03-23T10:30:34;100072.13;;;10.57;100.00
51781;BME280;37844;57.126;24.288;2023-03-23T10:32:52;100074.69;;;10.52;100.00
51781;BME280;37844;57.126;24.288;2023-03-23T10:35:38;100076.44;;;10.52;100.00
51781;BME280;37844;57.126;24.288;2023-03-23T10:38:26;100073.81;;;10.46;100.00
51781;BME280;37844;57.126;24.288;2023-03-23T10:41:14;100070.38;;;10.44;100.00
51781;BME280;37844;57.126;24.288;2023-03-23T10:44:08;100066.13;;;10.49;100.00
51781;BME280;37844;57.126;24.288;2023-03-23T10:49:48;100064.41;;;10.54;100.00
51781;BME280;37844;57.126;24.288;2023-03-23T10:55:22;100067.81;;;10.48;100.00
51781;BME280;37844;57.126;24.288;2023-03-23T10:58:09;100061.81;;;10.49;100.00
51781;BME280;37844;57.126;24.288;2023-03-23T11:00:53;100053.22;;;10.52;100.00
51781;BME280;37844;57.126;24.288;2023-03-23T11:03:41;100056.66;;;10.51;100.00
51781;BME280;37844;57.126;24.288;2023-03-23T11:06:27;100063.53;;;10.53;100.00
51781;BME280;37844;57.126;24.288;2023-03-23T11:09:16;100057.53;;;10.47;100.00
51781;BME280;37844;57.126;24.288;2023-03-23T11:12:01;100054.06;;;10.42;100.00
51781;BME280;37844;57.126;24.288;2023-03-23T11:14:46;100050.63;;;10.41;100.00
51781;BME280;37844;57.126;24.288;2023-03-23T11:17:30;100048.06;;;10.43;100.00
51781;BME280;37844;57.126;24.288;2023-03-23T11:20:19;100043.75;;;10.42;100.00
51781;BME280;37844;57.126;24.288;2023-03-23T11:23:26;100046.31;;;10.42;100.00
51781;BME280;37844;57.126;24.288;2023-03-23T11:29:12;100067.78;;;10.34;100.00
51781;BME280;37844;57.126;24.288;2023-03-23T11:34:45;100054.06;;;10.32;100.00
51781;BME280;37844;57.126;24.288;2023-03-23T11:37:35;100048.88;;;10.29;100.00
51781;BME280;37844;57.126;24.288;2023-03-23T11:40:21;100058.28;;;10.24;100.00
51781;BME280;37844;57.126;24.288;2023-03-23T11:43:09;100045.38;;;10.16;100.00
51781;BME280;37844;57.126;24.288;2023-03-23T11:46:01;100054.78;;;10.13;100.00
51781;BME280;37844;57.126;24.288;2023-03-23T11:48:57;99996.34;;;9.81;100.00
51781;BME280;37844;57.126;24.288;2023-03-23T11:51:44;100039.38;;;10.22;100.00
51781;BME280;37844;57.126;24.288;2023-03-23T11:54:31;100040.25;;;10.26;100.00
51781;BME280;37844;57.126;24.288;2023-03-23T11:57:17;100041.16;;;10.31;100.00
51781;BME280;37844;57.126;24.288;2023-03-23T12:00:10;100039.41;;;10.25;100.00
51781;BME280;37844;57.126;24.288;2023-03-23T12:02:57;100033.38;;;10.26;100.00
51781;BME280;37844;57.126;24.288;2023-03-23T12:05:50;100030.81;;;10.23;100.00
51781;BME280;37844;57.126;24.288;2023-03-23T12:11:23;100025.72;;;10.35;100.00
51781;BME280;37844;57.126;24.288;2023-03-23T12:14:32;100017.13;;;10.41;100.00
51781;BME280;37844;57.126;24.288;2023-03-23T12:17:28;100021.44;;;10.40;100.00
51781;BME280;37844;57.126;24.288;2023-03-23T12:29:02;100018.00;;;10.32;100.00
51781;BME280;37844;57.126;24.288;2023-03-23T12:43:23;99999.09;;;10.30;100.00
51781;BME280;37844;57.126;24.288;2023-03-23T12:49:05;99995.66;;;10.37;100.00
51781;BME280;37844;57.126;24.288;2023-03-23T12:54:36;99986.22;;;10.33;100.00
51781;BME280;37844;57.126;24.288;2023-03-23T13:00:17;99970.75;;;10.38;100.00
51781;BME280;37844;57.126;24.288;2023-03-23T13:08:57;99963.91;;;10.45;100.00
51781;BME280;37844;57.126;24.288;2023-03-23T13:11:43;99965.63;;;10.43;100.00
51781;BME280;37844;57.126;24.288;2023-03-23T13:20:34;99952.72;;;10.35;100.00
51781;BME280;37844;57.126;24.288;2023-03-23T13:26:08;99948.44;;;10.35;100.00
51781;BME280;37844;57.126;24.288;2023-03-23T13:28:55;99946.72;;;10.44;100.00
51781;BME280;37844;57.126;24.288;2023-03-23T13:31:41;99940.69;;;10.43;100.00
51781;BME280;37844;57.126;24.288;2023-03-23T13:34:34;99939.84;;;10.46;100.00
51781;BME280;37844;57.126;24.288;2023-03-23T13:37:20;99926.97;;;10.44;100.00
51781;BME280;37844;57.126;24.288;2023-03-23T13:40:28;99935.56;;;10.43;100.00
51781;BME280;37844;57.126;24.288;2023-03-23T13:43:12;99933.00;;;10.45;100.00
51781;BME280;37844;57.126;24.288;2023-03-23T13:46:52;99932.97;;;10.46;100.00
51781;BME280;37844;57.126;24.288;2023-03-23T13:49:14;99930.41;;;10.48;100.00
51781;BME280;37844;57.126;24.288;2023-03-23T13:52:01;99932.13;;;10.46;100.00
51781;BME280;37844;57.126;24.288;2023-03-23T13:54:46;99932.09;;;10.41;100.00
51781;BME280;37844;57.126;24.288;2023-03-23T13:57:38;99917.50;;;10.46;100.00
51781;BME280;37844;57.126;24.288;2023-03-23T14:03:17;99905.50;;;10.36;100.00
51781;BME280;37844;57.126;24.288;2023-03-23T14:06:03;99895.19;;;10.36;100.00
51781;BME280;37844;57.126;24.288;2023-03-23T14:08:50;99905.47;;;10.39;100.00
51781;BME280;37844;57.126;24.288;2023-03-23T14:11:44;99894.34;;;10.35;100.00
51781;BME280;37844;57.126;24.288;2023-03-23T14:14:31;99890.88;;;10.36;100.00
51781;BME280;37844;57.126;24.288;2023-03-23T14:17:20;99887.44;;;10.44;100.00
51781;BME280;37844;57.126;24.288;2023-03-23T14:20:05;99889.16;;;10.42;100.00
51781;BME280;37844;57.126;24.288;2023-03-23T14:22:52;99888.31;;;10.38;100.00
51781;BME280;37844;57.126;24.288;2023-03-23T14:25:36;99885.75;;;10.33;100.00
51781;BME280;37844;57.126;24.288;2023-03-23T14:28:20;99884.91;;;10.37;100.00
51781;BME280;37844;57.126;24.288;2023-03-23T14:31:34;99882.28;;;10.34;100.00
51781;BME280;37844;57.126;24.288;2023-03-23T14:34:24;99886.63;;;10.32;100.00
51781;BME280;37844;57.126;24.288;2023-03-23T14:37:10;99881.41;;;10.26;100.00
51781;BME280;37844;57.126;24.288;2023-03-23T14:39:55;99884.00;;;10.26;100.00
51781;BME280;37844;57.126;24.288;2023-03-23T14:42:41;99882.31;;;10.31;100.00
51781;BME280;37844;57.126;24.288;2023-03-23T14:45:25;99872.88;;;10.33;100.00
51781;BME280;37844;57.126;24.288;2023-03-23T14:48:10;99875.44;;;10.32;100.00
51781;BME280;37844;57.126;24.288;2023-03-23T14:50:57;99866.00;;;10.31;100.00
51781;BME280;37844;57.126;24.288;2023-03-23T14:53:42;99866.84;;;10.31;100.00
51781;BME280;37844;57.126;24.288;2023-03-23T14:56:32;99856.53;;;10.25;100.00
51781;BME280;37844;57.126;24.288;2023-03-23T14:59:17;99849.66;;;10.16;100.00
51781;BME280;37844;57.126;24.288;2023-03-23T15:02:01;99850.50;;;10.20;100.00
51781;BME280;37844;57.126;24.288;2023-03-23T15:04:46;99848.81;;;10.21;100.00
51781;BME280;37844;57.126;24.288;2023-03-23T15:07:34;99854.81;;;10.26;100.00
51781;BME280;37844;57.126;24.288;2023-03-23T15:10:20;99853.06;;;10.20;100.00
51781;BME280;37844;57.126;24.288;2023-03-23T15:13:05;99853.06;;;10.20;100.00
51781;BME280;37844;57.126;24.288;2023-03-23T15:15:49;99853.09;;;10.14;100.00
51781;BME280;37844;57.126;24.288;2023-03-23T15:18:37;99843.66;;;10.14;100.00
51781;BME280;37844;57.126;24.288;2023-03-23T15:21:23;99842.78;;;10.14;100.00
51781;BME280;37844;57.126;24.288;2023-03-23T15:24:31;99839.34;;;10.12;100.00
51781;BME280;37844;57.126;24.288;2023-03-23T15:27:16;99846.22;;;10.16;100.00
51781;BME280;37844;57.126;24.288;2023-03-23T15:30:15;99836.75;;;10.23;100.00
51781;BME280;37844;57.126;24.288;2023-03-23T15:33:01;99844.50;;;10.24;100.00
51781;BME280;37844;57.126;24.288;2023-03-23T15:35:49;99838.50;;;10.24;100.00
51781;BME280;37844;57.126;24.288;2023-03-23T15:38:34;99838.47;;;10.22;100.00
51781;BME280;37844;57.126;24.288;2023-03-23T15:41:45;99841.06;;;10.19;100.00
51781;BME280;37844;57.126;24.288;2023-03-23T15:44:30;99836.78;;;10.21;100.00
51781;BME280;37844;57.126;24.288;2023-03-23T15:47:15;99842.78;;;10.22;100.00